Time;durP1;ratioP1;P1;durP2;ratioP2;P2;SDS_P1;SDS_P2;PMS_P1;PMS_P2;Temp;Humidity;BMP_temperature;BMP_pressure;BME280_temperature;BME280_humidity;BME280_pressure;Samples;Min_cycle;Max_cycle;Signal;HPM_P1;HPM_P2
2022/12/27 00:02:02;;;;;;;2.55;1.30;;;9.30;99.90;;;;;;5053276;28;20031;-75
2022/12/27 00:04:28;;;;;;;1.27;1.20;;;;;;;;;;5049229;28;20104;-75
2022/12/27 00:06:54;;;;;;;1.75;1.15;;;9.20;99.90;;;;;;5058970;28;20029;-75
2022/12/27 00:09:20;;;;;;;1.85;1.05;;;;;;;;;;5047590;28;20027;-76
2022/12/27 00:11:46;;;;;;;1.83;1.10;;;;;;;;;;5053516;28;20063;-75
2022/12/27 00:14:12;;;;;;;1.35;1.10;;;9.30;99.90;;;;;;5056915;28;20088;-75
2022/12/27 00:16:38;;;;;;;0.90;0.90;;;9.30;99.90;;;;;;5055517;28;20112;-75
2022/12/27 00:19:04;;;;;;;1.30;1.00;;;9.40;99.90;;;;;;5056384;28;20029;-75
2022/12/27 00:21:30;;;;;;;2.25;1.40;;;;;;;;;;5052201;28;20054;-75
2022/12/27 00:23:56;;;;;;;1.45;1.27;;;9.20;99.90;;;;;;5053497;28;20413;-75
2022/12/27 00:26:28;;;;;;;1.08;0.90;;;9.10;99.90;;;;;;5052514;28;20061;-75
2022/12/27 00:28:54;;;;;;;1.40;1.30;;;;;;;;;;5052488;28;20029;-75
2022/12/27 00:31:21;;;;;;;1.63;1.40;;;9.10;99.90;;;;;;5053902;28;20396;-75
2022/12/27 00:33:49;;;;;;;3.25;1.42;;;9.00;99.90;;;;;;5055018;28;20029;-75
2022/12/27 00:36:18;;;;;;;1.17;1.08;;;8.80;99.90;;;;;;5049936;28;20039;-75
2022/12/27 00:38:44;;;;;;;2.33;1.15;;;8.60;99.90;;;;;;5066183;28;20055;-75
2022/12/27 00:41:10;;;;;;;1.30;1.20;;;;;;;;;;5050330;28;20497;-74
2022/12/27 00:43:36;;;;;;;1.73;1.30;;;;;;;;;;5062387;28;20048;-75
2022/12/27 00:46:02;;;;;;;1.67;1.30;;;8.60;99.90;;;;;;5050218;28;20519;-75
2022/12/27 00:48:28;;;;;;;2.47;1.20;;;8.40;99.90;;;;;;5055809;28;20029;-75
2022/12/27 00:51:04;;;;;;;3.40;1.40;;;8.60;99.90;;;;;;5049125;28;20414;-74
2022/12/27 00:53:30;;;;;;;1.23;1.13;;;8.70;99.90;;;;;;5053823;28;20032;-75
2022/12/27 00:55:56;;;;;;;3.40;3.10;;;8.60;99.90;;;;;;5047429;28;20043;-75
2022/12/27 00:58:23;;;;;;;3.03;1.00;;;;;;;;;;5050630;28;20025;-75
2022/12/27 01:00:49;;;;;;;8.55;1.35;;;8.70;99.90;;;;;;5047323;28;20039;-75
2022/12/27 01:03:15;;;;;;;7.00;1.58;;;8.50;99.90;;;;;;5060446;28;20025;-75
2022/12/27 01:05:41;;;;;;;1.38;1.02;;;;;;;;;;5044922;28;20430;-76
2022/12/27 01:08:07;;;;;;;2.22;1.45;;;8.40;99.90;;;;;;5051752;28;20028;-75
2022/12/27 01:10:33;;;;;;;2.05;1.30;;;8.20;99.90;;;;;;5057395;28;20054;-75
2022/12/27 01:13:00;;;;;;;0.93;0.93;;;8.20;99.90;;;;;;5051703;28;20029;-75
2022/12/27 01:15:26;;;;;;;1.50;1.25;;;;;;;;;;5053028;28;20136;-74
2022/12/27 01:17:52;;;;;;;1.70;1.25;;;8.20;99.90;;;;;;5051373;28;20150;-75
2022/12/27 01:20:18;;;;;;;2.20;1.40;;;;;;;;;;5051989;28;20020;-75
2022/12/27 01:22:44;;;;;;;3.50;1.30;;;;;;;;;;5051592;28;20024;-75
2022/12/27 01:25:10;;;;;;;2.95;1.38;;;;;;;;;;5048850;28;20402;-75
2022/12/27 01:27:36;;;;;;;1.13;1.02;;;;;;;;;;5049762;28;20039;-74
2022/12/27 01:30:06;;;;;;;0.70;0.70;;;7.40;99.90;;;;;;5056601;28;20029;-75
2022/12/27 01:32:32;;;;;;;3.78;1.13;;;7.00;99.90;;;;;;5048048;28;20025;-75
2022/12/27 01:34:58;;;;;;;3.00;1.80;;;7.20;99.90;;;;;;5060740;28;20100;-74
2022/12/27 01:37:24;;;;;;;6.82;2.50;;;;;;;;;;5053051;28;20120;-75
2022/12/27 01:39:50;;;;;;;2.75;1.65;;;;;;;;;;5056958;28;20116;-75
2022/12/27 01:45:23;;;;;;;1.40;1.30;;;7.10;99.90;;;;;;5053756;28;20078;-75
2022/12/27 01:47:51;;;;;;;1.45;1.35;;;6.90;99.90;;;;;;5047423;28;20037;-75
2022/12/27 01:50:34;;;;;;;3.38;2.08;;;6.60;99.90;;;;;;5052057;28;20132;-76
2022/12/27 01:53:18;;;;;;;2.40;1.50;;;6.80;99.90;;;;;;5037334;28;20052;-74
2022/12/27 01:56:07;;;;;;;1.30;1.20;;;6.80;99.90;;;;;;5058683;28;20033;-75
2022/12/27 01:58:37;;;;;;;1.40;1.10;;;6.80;99.90;;;;;;5051501;28;20021;-75
2022/12/27 02:01:06;;;;;;;3.03;2.60;;;6.10;99.90;;;;;;5066974;28;20493;-75
2022/12/27 02:03:36;;;;;;;2.40;1.88;;;6.50;99.90;;;;;;5055857;28;20107;-74
2022/12/27 02:06:03;;;;;;;11.00;1.75;;;6.20;99.90;;;;;;5058602;28;20024;-75
2022/12/27 02:08:51;;;;;;;2.97;2.03;;;6.30;99.90;;;;;;5054340;28;20035;-75
2022/12/27 02:11:49;;;;;;;1.15;0.90;;;6.20;99.90;;;;;;5057839;28;20032;-75
2022/12/27 02:14:05;;;;;;;1.98;1.10;;;6.10;99.90;;;;;;5040786;28;20028;-75
2022/12/27 02:16:30;;;;;;;3.40;1.30;;;6.30;99.90;;;;;;5056239;28;20040;-75
2022/12/27 02:18:56;;;;;;;4.15;1.60;;;;;;;;;;5050706;28;20036;-75
2022/12/27 02:21:43;;;;;;;2.33;2.17;;;6.30;99.90;;;;;;5061033;28;20029;-75
2022/12/27 02:24:46;;;;;;;2.08;1.40;;;6.10;99.90;;;;;;5051244;28;20028;-75
2022/12/27 02:28:00;;;;;;;1.60;1.30;;;6.00;99.90;;;;;;5048887;28;20508;-75
2022/12/27 02:30:30;;;;;;;1.83;1.73;;;5.90;99.90;;;;;;5047382;28;20036;-75
2022/12/27 02:33:02;;;;;;;1.50;1.20;;;5.50;99.90;;;;;;5062762;28;20025;-75
2022/12/27 02:35:41;;;;;;;3.03;1.80;;;5.70;99.90;;;;;;5054905;28;20017;-75
2022/12/27 02:38:20;;;;;;;1.75;1.20;;;5.50;99.90;;;;;;5057591;28;20120;-75
2022/12/27 02:58:49;;;;;;;1.55;1.02;;;5.20;99.90;;;;;;5054474;28;20177;-75
2022/12/27 03:04:20;;;;;;;0.85;0.85;;;5.40;99.90;;;;;;5057357;28;20551;-75
2022/12/27 03:07:01;;;;;;;0.90;0.88;;;5.20;99.90;;;;;;5049284;28;20021;-75
2022/12/27 03:16:09;;;;;;;5.07;1.00;;;5.20;99.90;;;;;;5046132;28;20559;-75
2022/12/27 03:19:02;;;;;;;0.80;0.80;;;5.60;99.90;;;;;;5012568;28;20548;-75
2022/12/27 03:27:27;;;;;;;0.90;0.80;;;6.00;99.90;;;;;;5014807;28;20041;-74
2022/12/27 03:33:15;;;;;;;2.08;1.48;;;6.20;99.90;;;;;;5013434;28;20079;-75
2022/12/27 03:39:02;;;;;;;2.25;1.20;;;5.70;99.90;;;;;;5009505;28;20479;-75
2022/12/27 03:44:25;;;;;;;3.45;1.65;;;;;;;;;;5014424;28;20100;-75
2022/12/27 03:47:06;;;;;;;7.40;1.75;;;5.10;99.90;;;;;;5006542;28;20050;-75
2022/12/27 03:49:40;;;;;;;5.28;1.25;;;4.80;99.90;;;;;;5011203;28;20502;-75
2022/12/27 03:52:06;;;;;;;1.10;1.02;;;;;;;;;;5019571;28;20481;-75
2022/12/27 03:54:39;;;;;;;2.08;1.00;;;5.40;99.90;;;;;;5055982;28;20112;-75
2022/12/27 03:57:09;;;;;;;1.55;1.10;;;4.80;99.90;;;;;;5051114;28;20028;-75
2022/12/27 03:59:34;;;;;;;2.20;2.00;;;4.60;99.90;;;;;;5055034;28;20436;-74
2022/12/27 04:02:01;;;;;;;4.30;1.50;;;4.60;99.90;;;;;;5050440;28;20021;-75
2022/12/27 04:04:26;;;;;;;1.77;0.82;;;4.60;99.90;;;;;;5053288;28;20402;-74
2022/12/27 04:06:52;;;;;;;1.25;1.13;;;4.30;99.90;;;;;;5050648;28;20103;-74
2022/12/27 04:36:45;;;;;;;1.58;1.23;;;4.00;99.90;;;;;;5041472;28;20087;-75
2022/12/27 04:39:11;;;;;;;3.83;1.73;;;;;;;;;;5050097;28;20032;-74
2022/12/27 04:55:58;;;;;;;7.50;1.52;;;4.20;99.90;;;;;;4982827;28;20033;-74
2022/12/27 04:58:24;;;;;;;2.80;1.77;;;4.20;99.90;;;;;;4988609;28;20124;-75
2022/12/27 05:03:35;;;;;;;1.48;1.20;;;3.90;99.90;;;;;;4986885;28;20067;-75
2022/12/27 05:06:01;;;;;;;3.20;1.70;;;3.90;99.90;;;;;;4995240;28;20034;-74
2022/12/27 05:14:00;;;;;;;0.85;0.85;;;3.60;99.90;;;;;;4995531;28;20068;-74
2022/12/27 05:16:28;;;;;;;1.67;1.17;;;3.70;99.90;;;;;;4993725;28;20042;-75
2022/12/27 05:18:53;;;;;;;1.33;1.02;;;3.60;99.90;;;;;;4994123;28;20117;-75
2022/12/27 05:21:19;;;;;;;1.40;0.93;;;;;;;;;;4989373;28;20113;-75
2022/12/27 05:26:30;;;;;;;1.00;1.00;;;3.00;99.90;;;;;;5050206;28;20501;-74
2022/12/27 05:28:57;;;;;;;3.63;1.63;;;3.50;99.90;;;;;;5053859;28;20028;-75
2022/12/27 05:31:24;;;;;;;;;;;3.50;99.90;;;;;;5059645;28;20805;-75
2022/12/27 05:33:51;;;;;;;1.33;1.10;;;3.40;99.90;;;;;;5058008;28;19986;-74
2022/12/27 05:36:17;;;;;;;1.00;0.93;;;;;;;;;;5053408;28;20287;-75
2022/12/27 05:38:43;;;;;;;5.63;2.45;;;;;;;;;;5069625;28;20032;-75
2022/12/27 05:41:09;;;;;;;1.15;0.70;;;3.70;99.90;;;;;;5053740;28;20497;-74
2022/12/27 05:43:35;;;;;;;2.60;1.05;;;3.70;99.90;;;;;;5065073;28;20140;-75
2022/12/27 05:46:16;;;;;;;2.47;1.08;;;3.80;99.90;;;;;;5053290;28;20135;-75
2022/12/27 05:48:42;;;;;;;1.65;1.55;;;;;;;;;;5058712;28;20032;-74
2022/12/27 05:51:14;;;;;;;1.80;1.17;;;3.90;99.90;;;;;;5052447;28;20016;-75
2022/12/27 05:53:40;;;;;;;0.95;0.95;;;;;;;;;;5053281;28;20032;-74
2022/12/27 05:56:08;;;;;;;4.90;1.15;;;3.90;99.90;;;;;;5051319;28;20029;-75
2022/12/27 05:58:34;;;;;;;5.32;2.40;;;;;;;;;;5062600;28;20402;-74
2022/12/27 06:01:00;;;;;;;3.60;1.40;;;3.50;99.90;;;;;;5048778;28;20112;-75
2022/12/27 06:03:26;;;;;;;2.78;1.70;;;3.50;99.90;;;;;;5062901;28;20032;-75
2022/12/27 06:05:59;;;;;;;1.88;1.60;;;3.10;99.90;;;;;;5061357;28;20072;-75
2022/12/27 06:08:25;;;;;;;2.72;1.85;;;;;;;;;;5058632;28;20032;-74
2022/12/27 06:11:04;;;;;;;5.07;1.23;;;3.20;99.90;;;;;;5059557;28;20398;-74
2022/12/27 06:13:30;;;;;;;3.22;1.60;;;3.10;99.90;;;;;;5054456;28;20082;-75
2022/12/27 06:16:01;;;;;;;6.10;0.93;;;2.90;99.90;;;;;;5058340;28;20033;-75
2022/12/27 06:18:28;;;;;;;1.52;1.42;;;3.00;99.90;;;;;;5054856;28;20025;-75
2022/12/27 06:20:55;;;;;;;1.48;1.33;;;;;;;;;;5056049;28;20060;-75
2022/12/27 06:23:21;;;;;;;2.80;1.58;;;;;;;;;;5054351;28;20543;-75
2022/12/27 06:25:47;;;;;;;1.65;0.93;;;;;;;;;;5052636;28;20075;-74
2022/12/27 06:28:13;;;;;;;1.48;1.38;;;;;;;;;;5059752;28;20048;-74
2022/12/27 06:30:38;;;;;;;1.67;1.25;;;;;;;;;;5057908;28;20056;-74
2022/12/27 06:33:04;;;;;;;1.58;1.00;;;2.80;99.90;;;;;;5051449;28;20067;-75
2022/12/27 06:35:30;;;;;;;3.63;1.20;;;;;;;;;;5067461;28;20078;-75
2022/12/27 06:37:56;;;;;;;1.10;1.00;;;;;;;;;;5052771;28;20036;-74
2022/12/27 06:40:22;;;;;;;0.95;0.80;;;;;;;;;;5060264;28;20481;-75
2022/12/27 06:42:48;;;;;;;0.73;0.73;;;;;;;;;;5050977;28;20100;-75
2022/12/27 06:45:14;;;;;;;4.00;1.98;;;;;;;;;;5056540;28;20016;-75
2022/12/27 06:47:41;;;;;;;5.90;2.63;;;;;;;;;;5050573;28;20041;-74
2022/12/27 06:50:07;;;;;;;5.43;2.38;;;2.70;99.90;;;;;;5056418;28;20025;-75
2022/12/27 06:52:33;;;;;;;6.47;2.80;;;;;;;;;;5050749;28;20029;-75
2022/12/27 06:54:59;;;;;;;4.85;2.00;;;;;;;;;;5051942;28;20047;-75
2022/12/27 06:57:25;;;;;;;3.83;1.60;;;;;;;;;;5049997;28;20476;-75
2022/12/27 06:59:51;;;;;;;3.45;2.13;;;;;;;;;;5058762;28;20111;-74
2022/12/27 07:02:18;;;;;;;3.88;2.05;;;;;;;;;;5062148;28;20033;-75
2022/12/27 07:04:44;;;;;;;8.52;4.13;;;;;;;;;;5056549;28;20018;-74
2022/12/27 07:07:10;;;;;;;6.20;2.78;;;3.60;99.90;;;;;;5058970;28;20028;-75
2022/12/27 07:09:36;;;;;;;3.08;1.90;;;;;;;;;;5053720;28;20051;-75
2022/12/27 07:12:02;;;;;;;5.50;3.22;;;;;;;;;;5055824;28;20029;-74
2022/12/27 07:14:27;;;;;;;2.42;2.08;;;3.70;99.90;;;;;;5053702;28;20385;-75
2022/12/27 07:16:53;;;;;;;1.05;0.98;;;;;;;;;;5051675;28;20037;-75
2022/12/27 07:19:19;;;;;;;4.53;1.52;;;4.30;99.90;;;;;;5052052;28;20017;-75
2022/12/27 07:21:45;;;;;;;5.05;2.67;;;;;;;;;;5061588;28;20029;-75
2022/12/27 07:24:11;;;;;;;4.38;2.78;;;;;;;;;;5049955;28;20112;-75
2022/12/27 07:26:38;;;;;;;3.92;2.03;;;4.00;99.90;;;;;;5064153;28;20016;-75
2022/12/27 07:29:04;;;;;;;6.28;2.33;;;4.10;99.90;;;;;;5057087;28;20037;-74
2022/12/27 07:31:31;;;;;;;5.07;2.50;;;4.00;99.90;;;;;;5060241;28;20029;-75
2022/12/27 07:33:58;;;;;;;4.68;2.15;;;;;;;;;;5056675;28;20029;-75
2022/12/27 07:36:27;;;;;;;10.57;2.85;;;4.00;99.90;;;;;;5053014;28;20029;-75
2022/12/27 07:38:53;;;;;;;6.38;2.60;;;4.20;99.90;;;;;;5040844;28;20709;-75
2022/12/27 07:41:19;;;;;;;10.27;4.30;;;4.00;99.90;;;;;;5055671;28;20033;-75
2022/12/27 07:43:45;;;;;;;4.55;2.90;;;;;;;;;;5068671;28;20064;-75
2022/12/27 07:46:19;;;;;;;5.25;3.28;;;4.00;99.90;;;;;;5053100;28;20025;-75
2022/12/27 07:48:46;;;;;;;12.57;4.78;;;4.10;99.90;;;;;;5050808;28;20120;-75
2022/12/27 07:51:12;;;;;;;18.10;5.85;;;4.10;99.90;;;;;;5047567;28;20020;-75
2022/12/27 07:53:38;;;;;;;39.22;13.10;;;;;;;;;;5053464;28;20524;-75
2022/12/27 07:56:09;;;;;;;19.48;6.63;;;4.20;99.90;;;;;;5052934;28;20073;-75
2022/12/27 07:58:37;;;;;;;11.55;6.13;;;4.20;99.90;;;;;;5058669;28;20028;-74
2022/12/27 08:01:03;;;;;;;9.88;4.47;;;;;;;;;;5053117;28;20096;-75
2022/12/27 08:03:30;;;;;;;7.75;4.07;;;4.10;99.90;;;;;;5056256;28;20116;-75
2022/12/27 08:05:56;;;;;;;7.90;4.38;;;;;;;;;;5051618;28;20028;-74
2022/12/27 08:08:26;;;;;;;4.97;3.08;;;4.50;99.90;;;;;;5054018;28;20413;-74
2022/12/27 08:10:52;;;;;;;6.70;2.33;;;4.50;99.90;;;;;;5048686;28;20875;-74
2022/12/27 08:13:18;;;;;;;1.40;1.30;;;;;;;;;;5052594;28;20021;-75
2022/12/27 08:15:44;;;;;;;2.22;1.85;;;;;;;;;;5048263;28;20105;-76
2022/12/27 08:18:09;;;;;;;4.05;1.70;;;4.50;99.90;;;;;;5061278;28;20025;-74
2022/12/27 08:20:36;;;;;;;2.92;2.08;;;;;;;;;;5047341;28;20513;-75
2022/12/27 08:23:02;;;;;;;6.10;2.67;;;;;;;;;;5052544;28;20037;-75
2022/12/27 08:25:28;;;;;;;4.60;2.70;;;5.00;99.90;;;;;;5058469;28;20120;-75
2022/12/27 08:28:03;;;;;;;4.03;2.67;;;5.20;99.90;;;;;;5054893;28;20115;-75
2022/12/27 08:30:29;;;;;;;6.00;2.65;;;;;;;;;;5056472;28;20029;-75
2022/12/27 08:32:54;;;;;;;6.75;2.53;;;5.20;99.90;;;;;;5053199;28;20112;-75
2022/12/27 08:35:20;;;;;;;4.18;2.38;;;;;;;;;;5052149;28;20564;-75
2022/12/27 08:37:46;;;;;;;5.65;2.97;;;;;;;;;;5052097;28;20061;-75
2022/12/27 08:40:12;;;;;;;3.97;3.35;;;;;;;;;;5050852;28;20017;-75
2022/12/27 08:42:38;;;;;;;7.38;2.47;;;;;;;;;;5053678;28;20422;-75
2022/12/27 08:45:05;;;;;;;4.85;2.85;;;;;;;;;;5055358;28;20017;-75
2022/12/27 08:47:31;;;;;;;8.60;2.95;;;;;;;;;;5049590;28;20024;-74
2022/12/27 08:49:57;;;;;;;4.82;2.88;;;;;;;;;;5065381;28;20036;-75
2022/12/27 08:52:23;;;;;;;7.47;3.00;;;;;;;;;;5051915;28;20028;-76
2022/12/27 08:54:49;;;;;;;4.03;2.58;;;;;;;;;;5055651;28;20035;-75
2022/12/27 08:57:15;;;;;;;2.67;1.88;;;;;;;;;;5051523;28;20036;-76
2022/12/27 08:59:40;;;;;;;7.50;3.08;;;;;;;;;;5054662;28;20016;-75
2022/12/27 09:02:07;;;;;;;3.60;2.33;;;;;;;;;;5048175;28;20025;-75
2022/12/27 09:04:32;;;;;;;3.00;1.58;;;;;;;;;;5053508;28;20509;-75
2022/12/27 09:06:59;;;;;;;5.13;3.28;;;;;;;;;;5049272;28;20031;-75
2022/12/27 09:09:25;;;;;;;5.82;3.40;;;;;;;;;;5051088;28;20032;-75
2022/12/27 09:11:50;;;;;;;6.43;2.35;;;;;;;;;;5048977;28;20025;-75
2022/12/27 09:14:17;;;;;;;8.13;3.65;;;;;;;;;;5056892;28;20493;-75
2022/12/27 09:16:43;;;;;;;5.13;3.35;;;;;;;;;;5049883;28;20040;-75
2022/12/27 09:19:09;;;;;;;6.18;2.88;;;8.00;99.90;;;;;;5051606;28;20035;-75
2022/12/27 09:21:37;;;;;;;7.00;3.03;;;7.50;99.90;;;;;;5057175;28;20099;-75
2022/12/27 09:24:03;;;;;;;12.63;4.75;;;;;;;;;;5051812;28;20231;-75
2022/12/27 09:26:29;;;;;;;13.57;6.10;;;8.30;99.90;;;;;;5054794;28;20190;-75
2022/12/27 09:28:57;;;;;;;7.80;4.68;;;8.10;99.90;;;;;;5051816;28;20127;-74
2022/12/27 09:31:23;;;;;;;7.47;3.17;;;8.30;99.90;;;;;;5052520;28;20064;-75
2022/12/27 09:33:49;;;;;;;6.23;3.57;;;;;;;;;;5049970;28;20017;-75
2022/12/27 09:36:21;;;;;;;13.25;4.30;;;8.60;99.90;;;;;;5049783;28;20039;-75
2022/12/27 09:38:47;;;;;;;8.10;4.72;;;8.90;99.90;;;;;;5048409;28;20523;-75
2022/12/27 09:41:20;;;;;;;9.57;4.63;;;8.80;99.90;;;;;;5056404;28;20025;-75
2022/12/27 09:43:46;;;;;;;6.85;3.30;;;;;;;;;;5047543;28;20392;-75
2022/12/27 09:46:22;;;;;;;8.98;4.30;;;9.60;99.90;;;;;;5053482;28;20032;-75
2022/12/27 09:48:49;;;;;;;12.93;4.95;;;;;;;;;;5052707;28;20029;-76
2022/12/27 09:51:17;;;;;;;8.65;5.05;;;11.80;99.90;;;;;;5057384;28;20123;-75
2022/12/27 09:54:01;;;;;;;9.98;5.63;;;12.80;97.80;;;;;;5051870;28;20536;-75
2022/12/27 09:56:33;;;;;;;5.05;2.90;;;12.70;95.50;;;;;;5056759;28;20024;-75
2022/12/27 09:59:20;;;;;;;6.68;2.15;;;12.20;94.70;;;;;;5049065;28;20033;-75
2022/12/27 10:01:47;;;;;;;5.40;2.97;;;12.00;98.60;;;;;;5053148;28;20021;-75
2022/12/27 10:04:16;;;;;;;5.75;3.45;;;11.90;96.70;;;;;;5033230;28;20090;-75
2022/12/27 10:06:47;;;;;;;8.27;2.95;;;12.00;98.00;;;;;;5057180;28;20033;-75
2022/12/27 10:09:33;;;;;;;6.38;2.80;;;12.70;98.60;;;;;;5046554;28;20021;-75
2022/12/27 10:12:40;;;;;;;5.45;2.38;;;13.40;96.90;;;;;;5060128;28;20039;-75
2022/12/27 10:15:30;;;;;;;3.83;2.55;;;13.50;99.90;;;;;;5011563;28;20042;-75
2022/12/27 10:18:07;;;;;;;11.70;3.88;;;13.80;93.90;;;;;;5010296;28;20458;-75
2022/12/27 10:20:39;;;;;;;;;;;13.80;93.00;;;;;;5012839;28;20017;-75
2022/12/27 10:23:10;;;;;;;8.90;3.22;;;13.60;93.40;;;;;;5009844;28;19909;-75
2022/12/27 10:25:38;;;;;;;6.07;4.13;;;13.00;94.50;;;;;;5011024;28;20117;-75
2022/12/27 10:28:24;;;;;;;7.72;4.63;;;11.90;96.70;;;;;;5012824;28;20033;-75
2022/12/27 10:30:51;;;;;;;9.75;4.63;;;11.30;99.90;;;;;;5009976;28;20122;-75
2022/12/27 10:33:25;;;;;;;19.10;8.65;;;10.40;99.90;;;;;;5008510;28;20037;-75
2022/12/27 10:35:51;;;;;;;11.10;5.30;;;;;;;;;;5008859;28;20034;-74
2022/12/27 10:38:18;;;;;;;14.23;5.82;;;9.50;99.90;;;;;;5017303;28;20029;-75
2022/12/27 10:40:50;;;;;;;11.60;4.07;;;8.70;99.90;;;;;;5008051;28;20022;-75
2022/12/27 10:43:19;;;;;;;8.85;5.15;;;8.60;99.90;;;;;;5004576;28;20057;-75
2022/12/27 10:45:45;;;;;;;16.75;6.63;;;;;;;;;;4992061;28;20069;-75
2022/12/27 10:48:24;;;;;;;12.25;4.80;;;8.50;99.90;;;;;;4994739;28;20033;-75
2022/12/27 10:50:53;;;;;;;11.27;5.20;;;9.00;99.90;;;;;;4995568;28;20029;-75
2022/12/27 10:53:45;;;;;;;8.15;4.90;;;9.30;99.90;;;;;;5017355;28;20029;-75
2022/12/27 10:56:19;;;;;;;8.55;4.95;;;11.10;99.90;;;;;;5000155;28;20468;-75
2022/12/27 10:58:45;;;;;;;9.10;5.18;;;13.80;99.90;;;;;;5008419;28;20049;-75
2022/12/27 11:01:35;;;;;;;9.30;5.47;;;16.30;92.50;;;;;;5009775;28;20391;-75
2022/12/27 11:04:11;;;;;;;11.65;7.20;;;21.50;79.20;;;;;;5020519;28;20038;-75
2022/12/27 11:06:38;;;;;;;15.25;7.30;;;22.70;64.90;;;;;;5010702;28;20053;-76
2022/12/27 11:09:25;;;;;;;7.43;3.67;;;22.30;57.10;;;;;;5017640;28;20439;-75
2022/12/27 11:11:53;;;;;;;3.97;2.83;;;22.40;64.90;;;;;;5013875;28;20017;-76
2022/12/27 11:14:19;;;;;;;7.05;3.33;;;20.70;69.30;;;;;;5014677;28;20037;-76
2022/12/27 11:16:47;;;;;;;11.85;4.57;;;20.00;75.10;;;;;;5012574;28;20030;-76
2022/12/27 11:19:31;;;;;;;11.63;4.70;;;20.40;63.70;;;;;;5016240;28;20025;-75
2022/12/27 11:22:03;;;;;;;9.10;5.47;;;21.40;73.00;;;;;;5010260;28;20101;-76
2022/12/27 11:24:29;;;;;;;10.73;4.70;;;20.70;60.00;;;;;;5013940;28;20021;-76
2022/12/27 11:26:58;;;;;;;9.93;4.20;;;21.20;60.20;;;;;;5008625;28;20033;-75
2022/12/27 11:29:26;;;;;;;6.90;3.28;;;21.90;57.10;;;;;;5038499;28;20063;-75
2022/12/27 11:31:53;;;;;;;3.97;2.60;;;24.00;63.70;;;;;;5009201;28;20030;-76
2022/12/27 11:34:34;;;;;;;2.67;1.80;;;25.20;50.10;;;;;;5019523;28;20036;-76
2022/12/27 11:37:26;;;;;;;3.97;2.85;;;26.00;60.10;;;;;;4999674;28;20285;-76
2022/12/27 11:40:19;;;;;;;3.30;2.08;;;26.30;57.70;;;;;;5018308;28;20033;-76
2022/12/27 11:42:52;;;;;;;2.92;2.13;;;25.90;57.20;;;;;;5022127;28;20059;-76
2022/12/27 11:45:18;;;;;;;3.53;2.38;;;;;;;;;;5057006;28;20017;-76
2022/12/27 11:48:01;;;;;;;5.03;2.38;;;24.40;47.40;;;;;;5049535;28;20465;-76
2022/12/27 11:50:45;;;;;;;3.40;2.00;;;22.00;52.00;;;;;;5055183;28;20040;-75
2022/12/27 11:53:26;;;;;;;1.98;1.58;;;19.90;62.10;;;;;;5049877;28;20029;-76
2022/12/27 11:56:25;;;;;;;4.20;1.30;;;19.10;72.50;;;;;;5058428;28;20539;-75
2022/12/27 11:59:08;;;;;;;6.47;1.95;;;18.40;74.60;;;;;;5049854;28;20437;-75
2022/12/27 12:01:59;;;;;;;10.32;2.13;;;17.70;59.60;;;;;;5052084;28;20025;-75
2022/12/27 12:04:55;;;;;;;3.63;1.73;;;18.40;73.90;;;;;;5043820;28;20028;-75
2022/12/27 12:07:35;;;;;;;2.08;1.23;;;18.20;60.90;;;;;;5057185;28;20037;-75
2022/12/27 12:10:07;;;;;;;4.15;1.10;;;18.00;61.10;;;;;;5053010;28;20588;-75
2022/12/27 12:12:51;;;;;;;3.58;1.33;;;18.90;63.40;;;;;;5055813;28;20729;-76
2022/12/27 12:15:17;;;;;;;2.05;0.98;;;;;;;;;;5050995;28;20380;-76
2022/12/27 12:17:58;;;;;;;5.35;1.20;;;17.80;59.80;;;;;;5052259;28;20099;-76
2022/12/27 12:20:32;;;;;;;0.73;0.73;;;17.10;63.50;;;;;;5053451;28;20100;-76
2022/12/27 12:23:26;;;;;;;2.83;1.23;;;16.90;60.70;;;;;;5051790;28;20124;-75
2022/12/27 12:26:37;;;;;;;0.90;0.85;;;17.70;73.80;;;;;;5056891;28;20432;-75
2022/12/27 12:29:39;;;;;;;1.98;1.45;;;17.80;57.00;;;;;;4996879;28;20608;-75
2022/12/27 12:32:23;;;;;;;0.98;0.70;;;18.10;55.60;;;;;;5017841;28;20577;-75
2022/12/27 12:35:19;;;;;;;0.80;0.75;;;18.60;56.40;;;;;;5006655;28;20150;-75
2022/12/27 12:38:10;;;;;;;1.35;0.85;;;19.30;55.70;;;;;;5008807;28;20596;-75
2022/12/27 12:40:36;;;;;;;3.83;1.30;;;;;;;;;;5011899;28;20021;-76
2022/12/27 12:43:50;;;;;;;5.07;1.30;;;19.50;53.50;;;;;;5009497;28;20404;-76
2022/12/27 12:46:26;;;;;;;3.92;1.77;;;19.50;54.20;;;;;;4993287;28;20636;-76
2022/12/27 12:49:16;;;;;;;0.55;0.55;;;19.70;53.30;;;;;;5006818;28;20187;-76
2022/12/27 12:51:50;;;;;;;4.07;1.00;;;19.60;52.80;;;;;;5016304;28;20025;-76
2022/12/27 12:54:27;;;;;;;0.50;0.50;;;19.60;52.90;;;;;;5005516;28;20107;-76
2022/12/27 12:56:53;;;;;;;;;;;19.60;53.40;;;;;;5010554;28;20050;-75
2022/12/27 12:59:30;;;;;;;0.85;0.65;;;19.30;52.70;;;;;;5022211;28;19919;-76
2022/12/27 13:02:11;;;;;;;1.27;0.52;;;19.20;53.00;;;;;;5050035;28;20075;-76
2022/12/27 13:04:37;;;;;;;1.35;0.45;;;;;;;;;;5055228;28;20149;-76
2022/12/27 13:07:36;;;;;;;0.40;0.40;;;18.60;51.60;;;;;;5051550;28;20119;-76
2022/12/27 13:10:46;;;;;;;0.22;0.22;;;18.10;55.20;;;;;;5042552;28;20025;-76
2022/12/27 13:13:30;;;;;;;0.52;0.52;;;17.80;53.80;;;;;;4987191;28;20499;-76
2022/12/27 13:15:56;;;;;;;2.50;1.98;;;;;;;;;;4987349;28;20042;-76
2022/12/27 13:18:40;;;;;;;1.15;0.90;;;17.50;51.70;;;;;;4999156;28;20034;-76
2022/12/27 13:21:06;;;;;;;3.15;0.73;;;;;;;;;;4987359;28;20044;-75
2022/12/27 13:23:55;;;;;;;0.82;0.60;;;17.30;57.60;;;;;;4998324;28;20403;-76
2022/12/27 13:26:53;;;;;;;0.63;0.50;;;17.20;52.60;;;;;;4990717;28;20030;-76
2022/12/27 13:29:48;;;;;;;2.55;1.20;;;17.00;52.80;;;;;;4993773;28;20072;-75
2022/12/27 13:32:52;;;;;;;0.65;0.50;;;16.80;52.90;;;;;;4984809;28;20037;-76
2022/12/27 13:35:55;;;;;;;0.60;0.55;;;16.60;53.40;;;;;;4984439;28;20495;-75
2022/12/27 13:39:00;;;;;;;0.40;0.40;;;16.30;53.20;;;;;;4990787;28;20053;-76
2022/12/27 13:41:51;;;;;;;1.02;0.70;;;16.00;53.20;;;;;;4984037;28;20049;-75
2022/12/27 13:44:28;;;;;;;0.60;0.60;;;15.80;53.50;;;;;;4992656;28;20508;-76
2022/12/27 13:47:15;;;;;;;0.52;0.52;;;15.40;67.60;;;;;;5003778;28;20060;-76
2022/12/27 13:49:57;;;;;;;2.92;0.60;;;15.40;53.30;;;;;;5064782;28;20052;-76
2022/12/27 13:53:03;;;;;;;0.52;0.52;;;15.30;54.20;;;;;;5055536;28;20368;-75
2022/12/27 13:55:40;;;;;;;1.33;0.50;;;15.20;54.40;;;;;;5055954;28;20044;-76
2022/12/27 13:58:11;;;;;;;1.65;0.50;;;15.10;54.40;;;;;;5055436;28;20041;-75
2022/12/27 14:01:04;;;;;;;1.05;0.55;;;15.00;54.40;;;;;;5057489;28;20099;-76
2022/12/27 14:03:44;;;;;;;1.70;1.15;;;14.60;58.70;;;;;;5055331;28;20536;-76
2022/12/27 14:06:19;;;;;;;10.73;2.78;;;14.70;54.90;;;;;;5055045;28;20036;-75
2022/12/27 14:09:22;;;;;;;1.48;0.50;;;14.50;54.50;;;;;;5053320;28;20021;-76
2022/12/27 14:12:06;;;;;;;1.65;0.90;;;14.50;61.80;;;;;;5052010;28;20168;-75
2022/12/27 14:14:36;;;;;;;2.30;0.80;;;14.50;55.40;;;;;;5063059;28;20024;-75
2022/12/27 14:17:46;;;;;;;0.63;0.63;;;14.20;54.90;;;;;;5039195;28;20038;-75
2022/12/27 14:20:52;;;;;;;1.73;0.50;;;14.20;55.80;;;;;;5009984;28;20211;-75
2022/12/27 14:23:18;;;;;;;0.52;0.50;;;;;;;;;;5001923;28;20065;-75
2022/12/27 14:25:53;;;;;;;2.42;1.08;;;14.10;71.40;;;;;;5016107;28;20039;-75
2022/12/27 14:28:41;;;;;;;0.80;0.70;;;16.80;58.20;;;;;;5003941;28;20120;-75
2022/12/27 14:31:07;;;;;;;0.50;0.50;;;;;;;;;;5007285;28;20080;-75
2022/12/27 14:34:00;;;;;;;2.20;1.02;;;13.70;56.30;;;;;;5009191;28;20021;-75
2022/12/27 14:36:54;;;;;;;1.05;0.93;;;13.70;60.70;;;;;;5011171;28;20499;-75
2022/12/27 14:39:20;;;;;;;2.58;1.50;;;;;;;;;;5005301;28;20037;-75
2022/12/27 14:41:46;;;;;;;1.08;0.52;;;;;;;;;;5006253;28;20117;-75
2022/12/27 14:44:33;;;;;;;1.52;0.90;;;13.00;62.20;;;;;;5009207;28;20061;-76
2022/12/27 14:47:46;;;;;;;1.65;0.68;;;12.60;58.30;;;;;;5009415;28;20635;-77
2022/12/27 14:50:32;;;;;;;0.57;0.55;;;12.30;59.10;;;;;;5004068;28;20038;-79
2022/12/27 14:53:48;;;;;;;0.63;0.60;;;12.00;59.80;;;;;;5001830;28;20087;-79
2022/12/27 14:56:37;;;;;;;5.55;0.77;;;11.60;60.60;;;;;;5022041;28;20079;-79
2022/12/27 14:59:21;;;;;;;1.02;0.50;;;11.30;61.30;;;;;;5048966;28;20155;-79
2022/12/27 15:02:03;;;;;;;4.13;0.70;;;11.10;61.90;;;;;;5053397;28;20537;-83
2022/12/27 15:04:35;;;;;;;0.98;0.57;;;10.80;72.90;;;;;;5049900;28;20037;-80
2022/12/27 15:07:29;;;;;;;0.73;0.73;;;10.60;63.50;;;;;;5060644;28;20028;-81
2022/12/27 15:10:11;;;;;;;0.80;0.60;;;10.30;64.40;;;;;;5049333;28;20143;-80
2022/12/27 15:12:46;;;;;;;0.47;0.47;;;10.10;64.80;;;;;;5059460;28;20600;-78
2022/12/27 15:15:17;;;;;;;0.50;0.50;;;9.90;65.90;;;;;;5046993;28;20044;-79
2022/12/27 15:18:07;;;;;;;0.50;0.50;;;9.60;66.30;;;;;;5057621;28;20377;-77
2022/12/27 15:20:38;;;;;;;0.50;0.50;;;9.40;67.30;;;;;;5038210;28;20021;-78
2022/12/27 15:23:12;;;;;;;0.75;0.65;;;9.30;68.40;;;;;;5050114;28;20078;-79
2022/12/27 15:26:03;;;;;;;1.08;0.95;;;9.30;80.50;;;;;;5051497;28;20105;-77
2022/12/27 15:28:54;;;;;;;1.67;0.70;;;8.90;70.50;;;;;;5040765;28;20027;-77
2022/12/27 15:31:44;;;;;;;2.15;0.68;;;8.80;76.40;;;;;;5049859;28;20095;-77
2022/12/27 15:35:04;;;;;;;1.35;0.63;;;8.50;74.30;;;;;;5050162;28;20039;-77